createdAt,value
2023-03-06T00:00:09.896Z,99655.03
2023-03-06T00:01:01.866Z,99655.73
2023-03-06T00:03:30.372Z,99653.77
2023-03-06T00:05:59.013Z,99654.95
2023-03-06T00:08:28.850Z,99653.86
2023-03-06T00:10:57.701Z,99653.09
2023-03-06T00:13:29.331Z,99650.45
2023-03-06T00:15:59.774Z,99649.23
2023-03-06T00:18:28.310Z,99654.06
2023-03-06T00:20:56.698Z,99653.16
2023-03-06T00:23:25.216Z,99656.29
2023-03-06T00:25:53.643Z,99654.98
2023-03-06T00:28:21.979Z,99657.08
2023-03-06T00:30:50.600Z,99655.05
2023-03-06T00:33:19.077Z,99658.46
2023-03-06T00:35:47.482Z,99653.36
2023-03-06T00:38:16.038Z,99655.27
2023-03-06T00:40:44.461Z,99655.65
2023-03-06T00:43:13.074Z,99654.52
2023-03-06T00:45:41.532Z,99654.31
2023-03-06T00:48:09.892Z,99653.14
2023-03-06T00:50:38.264Z,99654.14
2023-03-06T00:53:06.774Z,99653.63
2023-03-06T00:55:35.139Z,99654.04
2023-03-06T00:58:03.491Z,99652.92
2023-03-06T01:00:31.995Z,99652.52
2023-03-06T01:03:00.381Z,99650.90
2023-03-06T01:05:28.814Z,99649.62
2023-03-06T01:07:57.166Z,99647.95
2023-03-06T01:10:26.610Z,99641.91
2023-03-06T01:12:55.130Z,99645.06
2023-03-06T01:15:24.226Z,99641.45
2023-03-06T01:17:53.368Z,99641.88
2023-03-06T01:20:22.131Z,99641.30
2023-03-06T01:22:50.833Z,99640.52
2023-03-06T01:25:19.421Z,99638.98
2023-03-06T01:27:47.769Z,99642.42
2023-03-06T01:30:16.366Z,99641.75
2023-03-06T01:32:44.770Z,99641.27
2023-03-06T01:35:13.830Z,99639.25
2023-03-06T01:37:42.250Z,99637.94
2023-03-06T01:40:13.661Z,99635.38
2023-03-06T01:42:42.892Z,99635.27
2023-03-06T01:45:48.904Z,99634.73
2023-03-06T01:48:17.878Z,99629.39
2023-03-06T01:50:46.406Z,99631.17
2023-03-06T01:53:15.972Z,99627.22
2023-03-06T01:55:44.725Z,99625.73
2023-03-06T01:58:15.823Z,99624.55
2023-03-06T02:00:44.813Z,99621.05
2023-03-06T02:03:16.130Z,99620.23
2023-03-06T02:05:46.921Z,99622.11
2023-03-06T02:08:18.383Z,99620.50
2023-03-06T02:10:58.572Z,99623.38
2023-03-06T02:13:27.409Z,99624.29
2023-03-06T02:15:56.394Z,99626.20
2023-03-06T02:18:25.352Z,99626.41
2023-03-06T02:20:55.519Z,99625.25
2023-03-06T02:23:30.040Z,99623.01
2023-03-06T02:25:58.864Z,99626.76
2023-03-06T02:28:27.503Z,99624.20
2023-03-06T02:30:56.760Z,99620.80
2023-03-06T02:33:27.293Z,99621.12
2023-03-06T02:35:57.400Z,99621.15
2023-03-06T02:38:28.198Z,99622.00
2023-03-06T02:40:57.441Z,99620.43
2023-03-06T02:43:27.939Z,99619.41
2023-03-06T02:45:56.364Z,99621.20
2023-03-06T02:48:24.796Z,99622.77
2023-03-06T02:50:53.136Z,99623.52
2023-03-06T02:53:21.834Z,99620.73
2023-03-06T02:55:50.910Z,99621.30
2023-03-06T02:58:19.987Z,99620.39
2023-03-06T03:00:49.235Z,99616.39
2023-03-06T03:03:18.541Z,99615.06
2023-03-06T03:05:46.906Z,99621.06
2023-03-06T03:08:15.464Z,99620.27
2023-03-06T03:10:44.276Z,99618.90
2023-03-06T03:13:12.624Z,99621.58
2023-03-06T03:15:41.056Z,99619.68
2023-03-06T03:18:11.156Z,99616.70
2023-03-06T03:20:43.163Z,99619.02
2023-03-06T03:23:11.845Z,99616.84
2023-03-06T03:25:40.186Z,99617.36
2023-03-06T03:28:08.597Z,99617.81
2023-03-06T03:30:37.470Z,99615.85
2023-03-06T03:33:05.837Z,99616.73
2023-03-06T03:35:34.366Z,99616.91
2023-03-06T03:38:02.944Z,99615.09
2023-03-06T03:40:31.314Z,99613.77
2023-03-06T03:42:59.695Z,99615.36
2023-03-06T03:45:28.693Z,99613.59
2023-03-06T03:47:57.060Z,99615.21
2023-03-06T03:50:25.761Z,99613.35
2023-03-06T03:52:54.416Z,99611.11
2023-03-06T03:55:22.736Z,99610.58
2023-03-06T03:57:51.202Z,99605.64
2023-03-06T04:00:20.666Z,99605.95
2023-03-06T04:02:49.056Z,99605.91
2023-03-06T04:05:17.862Z,99603.60
2023-03-06T04:07:47.175Z,99602.38
2023-03-06T04:10:15.566Z,99601.27
2023-03-06T04:12:44.148Z,99600.84
2023-03-06T04:15:12.979Z,99601.40
2023-03-06T04:17:41.337Z,99602.66
2023-03-06T04:20:12.079Z,99597.88
2023-03-06T04:22:40.828Z,99600.30
2023-03-06T04:25:10.279Z,99598.97
2023-03-06T04:27:38.651Z,99599.71
2023-03-06T04:30:10.217Z,99600.14
2023-03-06T04:32:38.580Z,99597.42
2023-03-06T04:35:08.595Z,99592.71
2023-03-06T04:37:37.241Z,99590.94
2023-03-06T04:40:08.770Z,99591.90
2023-03-06T04:42:37.400Z,99592.41
2023-03-06T04:45:08.412Z,99586.39
2023-03-06T04:47:36.762Z,99587.98
2023-03-06T04:50:07.634Z,99588.35
2023-03-06T04:52:36.463Z,99592.35
2023-03-06T04:55:08.156Z,99588.97
2023-03-06T04:57:36.687Z,99584.52
2023-03-06T05:00:09.464Z,99583.02
2023-03-06T05:02:37.889Z,99579.70
2023-03-06T05:05:07.394Z,99579.11
2023-03-06T05:07:36.064Z,99580.45
2023-03-06T05:10:06.036Z,99581.73
2023-03-06T05:12:36.791Z,99582.79
2023-03-06T05:15:08.118Z,99585.71
2023-03-06T05:17:36.855Z,99589.52
2023-03-06T05:20:07.494Z,99586.38
2023-03-06T05:22:36.487Z,99590.90
2023-03-06T05:25:06.304Z,99582.67
2023-03-06T05:27:34.636Z,99582.46
2023-03-06T05:30:03.672Z,99584.63
2023-03-06T05:32:35.344Z,99584.33
2023-03-06T05:35:05.147Z,99580.38
2023-03-06T05:37:34.564Z,99581.00
2023-03-06T05:40:06.363Z,99582.41
2023-03-06T05:42:35.398Z,99581.46
2023-03-06T05:45:04.755Z,99580.29
2023-03-06T05:47:33.203Z,99581.27
2023-03-06T05:50:01.774Z,99588.49
2023-03-06T05:52:30.147Z,99586.78
2023-03-06T05:54:58.481Z,99589.50
2023-03-06T05:57:27.271Z,99590.46
2023-03-06T05:59:55.765Z,99590.75
2023-03-06T06:02:24.232Z,99591.20
2023-03-06T06:04:53.041Z,99589.53
2023-03-06T06:07:21.564Z,99590.20
2023-03-06T06:09:53.908Z,99593.77
2023-03-06T06:12:22.795Z,99594.56
2023-03-06T06:14:51.150Z,99597.00
2023-03-06T06:17:20.053Z,99594.59
2023-03-06T06:19:48.908Z,99593.45
2023-03-06T06:22:17.366Z,99593.39
2023-03-06T06:24:45.892Z,99594.76
2023-03-06T06:27:14.296Z,99595.27
2023-03-06T06:29:42.671Z,99596.86
2023-03-06T06:32:11.266Z,99599.42
2023-03-06T06:34:39.769Z,99600.94
2023-03-06T06:37:08.116Z,99601.38
2023-03-06T06:39:36.589Z,99600.96
2023-03-06T06:42:28.144Z,99597.87
2023-03-06T06:44:54.413Z,99594.88
2023-03-06T06:47:25.051Z,99595.13
2023-03-06T06:49:55.340Z,99597.14
2023-03-06T06:52:24.522Z,99597.16
2023-03-06T06:54:53.509Z,99595.20
2023-03-06T06:57:22.153Z,99593.09
2023-03-06T06:59:53.356Z,99593.55
2023-03-06T07:02:22.889Z,99591.71
2023-03-06T07:05:03.189Z,99591.98
2023-03-06T07:07:35.222Z,99591.16
2023-03-06T07:10:05.739Z,99591.16
2023-03-06T07:12:34.529Z,99590.95
2023-03-06T07:15:03.656Z,99586.05
2023-03-06T07:17:32.046Z,99582.80
2023-03-06T07:20:01.032Z,99575.97
2023-03-06T07:22:35.857Z,99577.00
2023-03-06T07:25:11.628Z,99569.45
2023-03-06T07:27:40.139Z,99573.17
2023-03-06T07:30:11.977Z,99564.61
2023-03-06T07:32:40.396Z,99564.08
2023-03-06T07:35:19.702Z,99560.02
2023-03-06T07:37:49.238Z,99557.29
2023-03-06T07:40:19.263Z,99559.10
2023-03-06T07:42:48.063Z,99567.81
2023-03-06T07:45:17.023Z,99570.39
2023-03-06T07:47:46.467Z,99572.23
2023-03-06T07:50:14.937Z,99578.54
2023-03-06T07:52:43.524Z,99576.56
2023-03-06T07:55:12.744Z,99574.21
2023-03-06T07:57:41.349Z,99576.37
2023-03-06T08:00:15.392Z,99579.63
2023-03-06T08:02:44.000Z,99579.28
2023-03-06T08:05:15.168Z,99575.50
2023-03-06T08:07:44.472Z,99573.95
2023-03-06T08:10:15.454Z,99572.77
2023-03-06T08:12:43.980Z,99575.19
2023-03-06T08:15:13.851Z,99574.12
2023-03-06T08:17:42.324Z,99574.74
2023-03-06T08:20:13.777Z,99572.36
2023-03-06T08:22:42.439Z,99569.40
2023-03-06T08:25:13.126Z,99573.69
2023-03-06T08:27:41.484Z,99569.88
2023-03-06T08:30:12.534Z,99570.27
2023-03-06T08:32:41.002Z,99569.02
2023-03-06T08:35:10.101Z,99567.34
2023-03-06T08:37:38.623Z,99570.08
2023-03-06T08:40:11.581Z,99573.86
2023-03-06T08:42:40.045Z,99571.48
2023-03-06T08:45:10.633Z,99572.41
2023-03-06T08:47:39.153Z,99568.13
2023-03-06T08:50:09.451Z,99567.11
2023-03-06T08:52:37.826Z,99568.75
2023-03-06T08:55:08.607Z,99566.66
2023-03-06T08:57:37.022Z,99562.02
2023-03-06T09:00:10.585Z,99560.77
2023-03-06T09:02:39.063Z,99562.18
2023-03-06T09:05:08.943Z,99554.65
2023-03-06T09:07:37.425Z,99553.48
2023-03-06T09:10:08.224Z,99545.20
2023-03-06T09:12:49.749Z,99543.31
2023-03-06T09:15:20.186Z,99544.77
2023-03-06T09:17:48.724Z,99540.25
2023-03-06T09:20:17.999Z,99543.19
2023-03-06T09:22:46.759Z,99540.71
2023-03-06T09:25:19.626Z,99542.27
2023-03-06T09:27:55.475Z,99543.11
2023-03-06T09:30:30.498Z,99545.14
2023-03-06T09:32:59.115Z,99547.96
2023-03-06T09:35:27.640Z,99545.99
2023-03-06T09:37:55.988Z,99543.08
2023-03-06T09:40:38.513Z,99540.89
2023-03-06T09:43:07.505Z,99541.16
2023-03-06T09:45:37.420Z,99537.11
2023-03-06T09:48:10.155Z,99535.23
2023-03-06T09:50:42.754Z,99534.23
2023-03-06T09:53:36.293Z,99532.41
2023-03-06T09:56:12.019Z,99531.84
2023-03-06T09:58:45.241Z,99531.70
2023-03-06T10:01:18.128Z,99532.52
2023-03-06T10:03:49.718Z,99528.35
2023-03-06T10:06:22.667Z,99524.96
2023-03-06T10:09:00.130Z,99525.71
2023-03-06T10:11:35.250Z,99522.20
2023-03-06T10:14:16.075Z,99514.84
2023-03-06T10:16:44.477Z,99516.27
2023-03-06T10:19:17.268Z,99518.60
2023-03-06T10:21:54.312Z,99516.92
2023-03-06T10:24:45.486Z,99510.73
2023-03-06T10:27:22.996Z,99512.37
2023-03-06T10:30:02.555Z,99511.37
2023-03-06T10:32:47.656Z,99510.40
2023-03-06T10:35:20.040Z,99508.59
2023-03-06T10:37:48.926Z,99509.88
2023-03-06T10:40:20.767Z,99511.91
2023-03-06T10:42:53.999Z,99511.75
2023-03-06T10:45:27.914Z,99509.64
2023-03-06T10:48:11.580Z,99507.49
2023-03-06T10:50:40.263Z,99505.12
2023-03-06T10:53:20.679Z,99501.83
2023-03-06T10:55:53.768Z,99499.77
2023-03-06T10:58:25.140Z,99498.83
2023-03-06T11:01:07.527Z,99497.17
2023-03-06T11:03:36.311Z,99494.04
2023-03-06T11:06:15.001Z,99491.25
2023-03-06T11:08:44.664Z,99491.30
2023-03-06T11:11:18.447Z,99485.14
2023-03-06T11:13:57.791Z,99481.59
2023-03-06T11:16:29.846Z,99473.80
2023-03-06T11:19:00.072Z,99464.88
2023-03-06T11:21:31.948Z,99462.39
2023-03-06T11:24:05.454Z,99460.00
2023-03-06T11:26:38.314Z,99455.65
2023-03-06T11:29:28.534Z,99447.95
2023-03-06T11:32:02.798Z,99446.25
2023-03-06T11:34:40.369Z,99445.70
2023-03-06T11:37:11.640Z,99442.33
2023-03-06T11:39:43.915Z,99440.98
2023-03-06T11:42:18.548Z,99437.71
2023-03-06T11:45:03.136Z,99438.55
2023-03-06T11:47:36.520Z,99437.67
2023-03-06T11:50:16.822Z,99437.02
2023-03-06T11:52:48.847Z,99432.11
2023-03-06T11:55:23.943Z,99431.58
2023-03-06T11:58:01.180Z,99425.35
2023-03-06T12:00:47.851Z,99424.29
2023-03-06T12:03:41.811Z,99424.05
2023-03-06T12:06:14.114Z,99418.23
2023-03-06T12:08:51.940Z,99418.61
2023-03-06T12:11:24.339Z,99414.42
2023-03-06T12:14:04.976Z,99416.04
2023-03-06T12:16:50.434Z,99417.92
2023-03-06T12:19:29.954Z,99418.46
2023-03-06T12:22:11.894Z,99415.81
2023-03-06T12:25:16.338Z,99415.72
2023-03-06T12:27:49.648Z,99412.27
2023-03-06T12:30:40.122Z,99412.99
2023-03-06T12:33:16.806Z,99408.08
2023-03-06T12:35:54.355Z,99405.85
2023-03-06T12:38:51.047Z,99409.14
2023-03-06T12:41:28.035Z,99404.53
2023-03-06T12:44:11.342Z,99399.02
2023-03-06T12:46:42.613Z,99399.64
2023-03-06T12:49:20.156Z,99398.72
2023-03-06T12:51:52.159Z,99392.63
2023-03-06T12:54:23.569Z,99393.86
2023-03-06T12:56:52.689Z,99388.50
2023-03-06T12:59:43.696Z,99388.71
2023-03-06T13:02:33.614Z,99389.32
2023-03-06T13:05:21.574Z,99385.27
2023-03-06T13:07:58.476Z,99377.63
2023-03-06T13:10:28.642Z,99376.29
2023-03-06T13:12:57.395Z,99373.08
2023-03-06T13:15:40.618Z,99364.11
2023-03-06T13:18:45.129Z,99363.15
2023-03-06T13:22:00.141Z,99360.29
2023-03-06T13:24:29.559Z,99365.77
2023-03-06T13:27:03.905Z,99365.88
2023-03-06T13:30:22.773Z,99364.99
2023-03-06T13:32:52.907Z,99357.71
2023-03-06T13:35:48.689Z,99356.29
2023-03-06T13:38:35.618Z,99352.91
2023-03-06T13:41:40.446Z,99342.96
2023-03-06T13:44:46.184Z,99344.08
2023-03-06T13:47:33.454Z,99342.71
2023-03-06T13:50:18.382Z,99338.65
2023-03-06T13:52:57.732Z,99340.95
2023-03-06T13:55:33.858Z,99340.83
2023-03-06T13:58:18.002Z,99338.84
2023-03-06T14:00:58.799Z,99339.23
2023-03-06T14:03:44.844Z,99342.80
2023-03-06T14:06:50.890Z,99336.59
2023-03-06T14:09:28.882Z,99338.65
2023-03-06T14:12:00.598Z,99335.30
2023-03-06T14:14:36.028Z,99329.99
2023-03-06T14:17:05.668Z,99331.06
2023-03-06T14:19:38.750Z,99325.19
2023-03-06T14:22:12.339Z,99321.92
2023-03-06T14:24:43.498Z,99326.00
2023-03-06T14:27:18.256Z,99321.92
2023-03-06T14:29:48.199Z,99315.00
2023-03-06T14:32:18.966Z,99313.28
2023-03-06T14:34:47.570Z,99311.73
2023-03-06T14:37:22.119Z,99308.83
2023-03-06T14:39:50.815Z,99308.17
2023-03-06T14:42:21.175Z,99307.45
2023-03-06T14:44:59.731Z,99303.23
2023-03-06T14:47:29.883Z,99302.89
2023-03-06T14:50:21.234Z,99305.70
2023-03-06T14:52:50.384Z,99303.04
2023-03-06T14:55:21.258Z,99308.79
2023-03-06T14:57:52.880Z,99311.23
2023-03-06T15:00:23.673Z,99302.27
2023-03-06T15:02:53.637Z,99299.94
2023-03-06T15:05:25.079Z,99301.41
2023-03-06T15:07:55.282Z,99306.10
2023-03-06T15:10:25.828Z,99301.98
2023-03-06T15:12:54.672Z,99304.42
2023-03-06T15:15:32.031Z,99301.52
2023-03-06T15:18:00.850Z,99298.96
2023-03-06T15:20:41.331Z,99300.48
2023-03-06T15:23:21.882Z,99302.67
2023-03-06T15:25:53.097Z,99302.31
2023-03-06T15:28:30.806Z,99303.34
2023-03-06T15:31:19.665Z,99300.25
2023-03-06T15:34:15.132Z,99299.73
2023-03-06T15:36:44.582Z,99298.25
2023-03-06T15:39:34.065Z,99293.93
2023-03-06T15:42:07.050Z,99291.54
2023-03-06T15:44:35.392Z,99291.48
2023-03-06T15:47:08.701Z,99296.17
2023-03-06T15:49:38.177Z,99293.08
2023-03-06T15:52:07.118Z,99294.11
2023-03-06T15:54:35.946Z,99291.60
2023-03-06T15:57:06.291Z,99294.12
2023-03-06T15:59:38.854Z,99292.03
2023-03-06T16:02:15.659Z,99290.13
2023-03-06T16:04:44.565Z,99294.53
2023-03-06T16:07:13.347Z,99293.88
2023-03-06T16:09:42.340Z,99293.22
2023-03-06T16:12:16.679Z,99299.52
2023-03-06T16:14:46.662Z,99298.22
2023-03-06T16:17:16.756Z,99299.80
2023-03-06T16:19:45.614Z,99300.55
2023-03-06T16:22:14.512Z,99301.17
2023-03-06T16:24:43.083Z,99301.73
2023-03-06T16:27:17.253Z,99299.25
2023-03-06T16:29:45.810Z,99302.10
2023-03-06T16:32:14.321Z,99295.98
2023-03-06T16:34:42.785Z,99297.27
2023-03-06T16:37:11.845Z,99299.95
2023-03-06T16:39:40.213Z,99297.60
2023-03-06T16:42:08.689Z,99299.16
2023-03-06T16:44:37.165Z,99299.13
2023-03-06T16:47:06.182Z,99297.84
2023-03-06T16:49:34.549Z,99304.12
2023-03-06T16:52:04.056Z,99303.92
2023-03-06T16:54:32.484Z,99305.24
2023-03-06T16:57:00.809Z,99299.63
2023-03-06T16:59:29.546Z,99300.25
2023-03-06T17:01:58.009Z,99303.13
2023-03-06T17:04:26.397Z,99301.15
2023-03-06T17:06:55.183Z,99302.73
2023-03-06T17:09:23.607Z,99301.81
2023-03-06T17:11:51.975Z,99301.55
2023-03-06T17:14:20.761Z,99300.92
2023-03-06T17:16:49.145Z,99303.41
2023-03-06T17:19:17.508Z,99301.66
2023-03-06T17:21:46.042Z,99302.88
2023-03-06T17:24:14.407Z,99300.02
2023-03-06T17:26:43.708Z,99304.16
2023-03-06T17:29:12.299Z,99302.77
2023-03-06T17:31:40.721Z,99303.42
2023-03-06T17:34:09.829Z,99306.20
2023-03-06T17:36:38.648Z,99307.07
2023-03-06T17:39:06.991Z,99305.58
2023-03-06T17:41:35.527Z,99308.20
2023-03-06T17:44:04.305Z,99303.63
2023-03-06T17:46:34.102Z,99305.65
2023-03-06T17:49:02.550Z,99302.64
2023-03-06T17:51:30.920Z,99300.79
2023-03-06T17:53:59.366Z,99301.64
2023-03-06T17:56:27.813Z,99305.33
2023-03-06T17:58:56.937Z,99304.46
2023-03-06T18:01:26.657Z,99305.18
2023-03-06T18:03:55.324Z,99306.33
2023-03-06T18:06:26.906Z,99304.25
2023-03-06T18:08:55.548Z,99301.15
2023-03-06T18:11:24.388Z,99294.73
2023-03-06T18:13:53.005Z,99295.45
2023-03-06T18:16:23.277Z,99294.45
2023-03-06T18:18:52.861Z,99296.90
2023-03-06T18:21:22.183Z,99296.88
2023-03-06T18:23:50.726Z,99296.64
2023-03-06T18:26:21.398Z,99295.76
2023-03-06T18:28:52.672Z,99296.86
2023-03-06T18:31:23.728Z,99301.52
2023-03-06T18:33:52.925Z,99303.48
2023-03-06T18:36:22.745Z,99304.64
2023-03-06T18:38:51.276Z,99301.33
2023-03-06T18:41:21.208Z,99300.64
2023-03-06T18:43:52.915Z,99305.33
2023-03-06T18:46:21.404Z,99299.65
2023-03-06T18:48:49.938Z,99297.68
2023-03-06T18:51:19.550Z,99300.98
2023-03-06T18:53:48.182Z,99297.91
2023-03-06T18:56:18.761Z,99298.89
2023-03-06T18:58:47.641Z,99298.55
2023-03-06T19:01:16.244Z,99299.31
2023-03-06T19:03:44.722Z,99296.08
2023-03-06T19:06:14.931Z,99294.91
2023-03-06T19:08:43.366Z,99293.17
2023-03-06T19:11:13.515Z,99292.30
2023-03-06T19:13:42.773Z,99285.74
2023-03-06T19:16:17.206Z,99287.17
2023-03-06T19:18:45.598Z,99285.95
2023-03-06T19:21:15.712Z,99283.55
2023-03-06T19:23:44.471Z,99288.36
2023-03-06T19:26:13.611Z,99286.36
2023-03-06T19:28:42.799Z,99283.59
2023-03-06T19:31:13.184Z,99282.33
2023-03-06T19:33:42.536Z,99286.66
2023-03-06T19:36:13.122Z,99285.95
2023-03-06T19:38:41.724Z,99286.94
2023-03-06T19:41:12.914Z,99287.87
2023-03-06T19:43:42.059Z,99284.89
2023-03-06T19:46:12.578Z,99281.52
2023-03-06T19:48:41.122Z,99281.17
2023-03-06T19:51:10.366Z,99278.88
2023-03-06T19:53:39.359Z,99280.39
2023-03-06T19:56:09.412Z,99280.58
2023-03-06T19:58:40.011Z,99278.35
2023-03-06T20:01:10.196Z,99277.35
2023-03-06T20:03:39.446Z,99277.91
2023-03-06T20:06:12.774Z,99280.89
2023-03-06T20:08:41.272Z,99276.65
2023-03-06T20:11:16.861Z,99281.64
2023-03-06T20:13:47.380Z,99281.52
2023-03-06T20:16:16.174Z,99280.88
2023-03-06T20:18:45.193Z,99285.15
2023-03-06T20:21:14.026Z,99284.13
2023-03-06T20:23:42.778Z,99282.73
2023-03-06T20:26:13.688Z,99284.45
2023-03-06T20:28:42.667Z,99280.82
2023-03-06T20:31:12.995Z,99283.76
2023-03-06T20:33:41.539Z,99276.52
2023-03-06T20:36:13.509Z,99279.31
2023-03-06T20:38:42.346Z,99278.21
2023-03-06T20:41:15.735Z,99282.73
2023-03-06T20:43:44.226Z,99284.28
2023-03-06T20:46:13.344Z,99281.16
2023-03-06T20:48:42.419Z,99283.61
2023-03-06T20:51:16.452Z,99280.95
2023-03-06T20:53:44.134Z,99281.55
2023-03-06T20:56:13.248Z,99284.54
2023-03-06T20:58:41.768Z,99281.04
2023-03-06T21:01:18.516Z,99281.86
2023-03-06T21:03:46.944Z,99278.18
2023-03-06T21:06:15.509Z,99279.40
2023-03-06T21:08:43.939Z,99279.42
2023-03-06T21:11:12.510Z,99282.94
2023-03-06T21:13:41.118Z,99280.66
2023-03-06T21:16:12.405Z,99275.73
2023-03-06T21:18:40.931Z,99276.16
2023-03-06T21:21:11.648Z,99269.22
2023-03-06T21:23:40.527Z,99270.41
2023-03-06T21:26:12.617Z,99274.79
2023-03-06T21:28:41.426Z,99274.48
2023-03-06T21:31:11.216Z,99269.05
2023-03-06T21:33:40.193Z,99273.19
2023-03-06T21:36:09.313Z,99268.29
2023-03-06T21:38:38.504Z,99272.48
2023-03-06T21:41:11.527Z,99269.39
2023-03-06T21:43:40.521Z,99267.87
2023-03-06T21:46:08.901Z,99269.55
2023-03-06T21:48:37.469Z,99270.00
2023-03-06T21:51:07.559Z,99267.86
2023-03-06T21:53:36.154Z,99266.56
2023-03-06T21:56:06.040Z,99270.57
2023-03-06T21:58:34.432Z,99269.95
2023-03-06T22:01:07.422Z,99272.83
2023-03-06T22:03:36.200Z,99270.66
2023-03-06T22:06:12.354Z,99277.52
2023-03-06T22:08:41.685Z,99276.14
2023-03-06T22:11:12.712Z,99278.13
2023-03-06T22:13:41.112Z,99282.27
2023-03-06T22:16:09.744Z,99280.03
2023-03-06T22:18:38.524Z,99279.70
2023-03-06T22:21:11.677Z,99281.35
2023-03-06T22:23:40.155Z,99285.08
2023-03-06T22:26:10.567Z,99284.36
2023-03-06T22:28:39.366Z,99282.84
2023-03-06T22:31:10.055Z,99285.62
2023-03-06T22:33:38.473Z,99287.02
2023-03-06T22:36:09.498Z,99287.90
2023-03-06T22:38:41.822Z,99290.73
2023-03-06T22:41:11.480Z,99291.10
2023-03-06T22:43:40.045Z,99290.90
2023-03-06T22:46:11.017Z,99291.87
2023-03-06T22:48:39.689Z,99297.67
2023-03-06T22:51:10.089Z,99299.39
2023-03-06T22:53:39.234Z,99298.84
2023-03-06T22:56:10.825Z,99302.53
2023-03-06T22:58:40.011Z,99303.99
2023-03-06T23:01:09.524Z,99302.23
2023-03-06T23:03:38.999Z,99308.89
2023-03-06T23:06:09.950Z,99310.94
2023-03-06T23:08:38.625Z,99315.61
2023-03-06T23:11:09.641Z,99307.94
2023-03-06T23:13:38.555Z,99309.71
2023-03-06T23:16:08.788Z,99311.29
2023-03-06T23:18:38.160Z,99310.20
2023-03-06T23:21:08.313Z,99309.86
2023-03-06T23:23:36.966Z,99320.36
2023-03-06T23:26:06.405Z,99322.30
2023-03-06T23:28:35.290Z,99319.33
2023-03-06T23:31:08.070Z,99323.35
2023-03-06T23:33:38.102Z,99326.98
2023-03-06T23:36:08.943Z,99328.79
2023-03-06T23:38:37.672Z,99333.67
2023-03-06T23:41:07.853Z,99341.14
2023-03-06T23:43:36.203Z,99343.98
2023-03-06T23:46:06.500Z,99344.75
2023-03-06T23:48:35.529Z,99347.86
2023-03-06T23:51:07.000Z,99351.03
2023-03-06T23:53:35.720Z,99351.67
2023-03-06T23:56:06.517Z,99354.13
2023-03-06T23:58:35.162Z,99354.35
